Mayville, Oregon
Current Conditions -  °F | °C
As of 1:15 PM on Wednesday 26 Nov 2014 (Local Time) from KS39 Reporting Station
Clear Clear  
Wind Chill: 50°   Ceiling: Unl
Heat Index: 50°   Visibility: 10mi
Dew Point: 39°   Wind: 5mph
Humidity: 66%   Direction: 70°ENE
Pressure: 30.19"   Gusts: NA
Location:  44.9464°N, 120.192°W
Report Text: KS39 262115Z AUTO 07004KT 10SM CLR 10/04 A3019 RMK AO2
Loading
Personal Weather Stations






























Interactive Weather Map New forecast layout! Learn more

10-Day Weather Forecast

Advertisements
Track Severe Weather on mobile